• Join FlightAware (Why Join?)
  • Login
  • US Flag GB Flag 
03:02 EDT


 

Airport Tracker/Info


-or-


 

Live Flight TrackerFlight Track Log ✈ SWA1086 ✈ 14-Apr-2013 ✈ KOKC - KMCI

Flight Track Log - Related Links

Times and Time Zones

All times are in EDT time to prevent confusion due to time zone crossing. See the SWA1086 flight status page for this flight to view local times or setup timezone preferences in your user account.

Time Position Orientation Groundspeed Altitude Reporting Facility
EDT Latitude Longitude Course Direction KTS MPH feet Rate Location/Type
11:03 35.3539 -97.6044 184° South 164 189 3,100  Level Fort Worth Center
11:04 35.3539 -97.6731 270° West 227 261 6,000 2,760 Climbing Fort Worth Center
11:05 35.4183 -97.7039 339° North 316 364 8,700 2,460 Climbing Fort Worth Center
11:07 35.6089 -97.6272 18° North 345 397 14,000 1,980 Climbing Kansas City Center
11:08 35.7144 -97.5844 18° North 385 443 15,100 1,980 Climbing Kansas City Center
11:09 35.8153 -97.5433 18° North 384 442 18,200 2,760 Climbing Kansas City Center
11:10 35.9178 -97.5019 18° North 384 442 20,900 2,400 Climbing Kansas City Center
11:11 36.0447 -97.4508 18° North 394 453 23,200 2,160 Climbing Kansas City Center
11:13 36.1547 -97.4058 18° North 409 471 25,400 1,740 Climbing Kansas City Center
11:14 36.2639 -97.3594 19° North 413 475 26,900 1,380 Climbing Kansas City Center
11:15 36.3792 -97.3128 18° North 427 491 28,300 1,560 Climbing Kansas City Center
11:16 36.4956 -97.2639 19° North 439 505 30,200 1,260 Climbing Kansas City Center
11:17 36.6125 -97.2158 18° North 441 507 31,000 360 Climbing Kansas City Center
11:18 36.7311 -97.1694 17° North 445 512 31,000  Level Kansas City Center
11:19 36.8528 -97.0944 26° Northeast 449 517 31,000  Level Kansas City Center
11:20 36.9653 -97.0189 28° Northeast 459 528 31,000  Level Kansas City Center
11:21 37.0719 -96.9347 32° Northeast 458 527 31,000  Level Kansas City Center
11:22 37.1986 -96.8283 34° Northeast 459 528 31,000  Level Kansas City Center
11:23 37.3042 -96.7369 35° Northeast 461 531 31,000  Level Kansas City Center
11:24 37.4117 -96.6447 34° Northeast 464 534 31,000 -360 Level Kansas City Center
11:25 37.5206 -96.5519 34° Northeast 471 542 30,300 -960 Descending Kansas City Center
11:26 37.6275 -96.4589 35° Northeast 470 541 29,100 -1,200 Descending Kansas City Center
11:27 37.7353 -96.3675 34° Northeast 468 539 27,900 -1,200 Descending Kansas City Center
11:28 37.8617 -96.2572 35° Northeast 462 532 26,700 -1,080 Descending Kansas City Center
11:29 37.9669 -96.1653 35° Northeast 461 531 25,700 -960 Descending Kansas City Center
11:30 38.0703 -96.0756 34° Northeast 453 521 24,800 -1,080 Descending Kansas City Center
11:31 38.1850 -95.9736 35° Northeast 451 519 23,500 -900 Descending Kansas City Center
11:32 38.2808 -95.8894 35° Northeast 440 506 23,000 -300 Descending Kansas City Center
11:33 38.3758 -95.8050 35° Northeast 436 502 23,000  Level Kansas City Center
11:34 38.4861 -95.7072 35° Northeast 432 497 23,000  Level Kansas City Center
11:35 38.5778 -95.6253 35° Northeast 421 484 23,000 -900 Level Kansas City Center
11:36 38.6836 -95.5308 35° Northeast 416 479 21,200 -1,920 Descending Kansas City Center
11:37 38.7719 -95.4522 35° Northeast 406 467 19,100 -2,640 Descending Kansas City Center
11:38 38.8614 -95.3433 43° Northeast 398 458 15,800 -2,880 Descending Kansas City Center
11:39 38.9328 -95.2414 48° Northeast 402 463 13,200 -1,860 Descending Kansas City Center
11:40 39.0131 -95.1283 48° Northeast 383 441 12,000 -600 Descending Kansas City Center
11:41 39.0742 -95.0406 48° Northeast 345 397 12,000 -60 Level Kansas City Center
11:42 39.1431 -94.9422 48° Northeast 339 390 11,900 -900 Descending Kansas City Center
11:43 39.1989 -94.8700 45° Northeast 304 350 10,200 -1,860 Descending Kansas City Center
11:45 39.2864 -94.8344 17° North 297 342 8,100 -1,920 Descending Kansas City Center
11:46 39.3614 -94.8033 18° North 297 342 6,300 -1,440 Descending Kansas City Center
11:47 39.4472 -94.7675 18° North 290 334 5,200 -1,080 Descending Kansas City Center
11:48 39.4553 -94.6978 81° East 203 234 4,200 -1,200 Descending Kansas City Center
11:49 39.4150 -94.6936 175° South 137 158 2,800 -1,020 Descending Kansas City Center
11:50 39.3806 -94.7039 193° South 133 153 2,200 -720 Descending Kansas City Center
11:51 39.3428 -94.7150 193° South 126 145 1,400 -600 Descending Kansas City Center
11:52 39.3100 -94.7244 193° South 128 147 1,000 -420 Descending Kansas City Center